WetterOnline ( https://www.wetteronline.at )

Wetter aktuell Luckenwalde

Aktuelles Wetter: Baruth (55m)

6-stündlich | Neueste Meldungen
Ortszeit Temperatur Wetter
Fr, 17.01. 19:00 3.7° C wolkig
Fr, 17.01. 13:00 8.6° C wolkenlos
Fr, 17.01. 7:00 -0.2° C wolkenlos
Fr, 17.01. 1:00 1.8° C wolkenlos
Do, 16.01. 19:00 5.6° C wolkenlos
Do, 16.01. 13:00 11.2° C wolkenlos
Do, 16.01. 7:00 2.8° C Nebel
Do, 16.01. 1:00 7.5° C bewölkt
Ortszeit Temperatur Wetter
Fr, 17.01. 23:00 5.4° C bewölkt
Fr, 17.01. 22:50 5.4° C bewölkt
Fr, 17.01. 22:40 5.2° C wolkig
Fr, 17.01. 22:30 4.7° C wolkig
Fr, 17.01. 22:20 4.7° C wolkig
Fr, 17.01. 22:10 4.7° C wolkig
Fr, 17.01. 22:00 4.4° C leicht bewölkt
Fr, 17.01. 21:30 4.1° C fast wolkenlos
Fr, 17.01. 21:00 4.2° C wolkenlos
Fr, 17.01. 20:30 3.2° C wolkenlos
Fr, 17.01. 20:00 3.6° C leicht bewölkt
Ortszeit Relative Feuchte Sichtweite
Fr, 17.01. 19:00 82% 20 km
Fr, 17.01. 13:00 68% 30 km
Fr, 17.01. 7:00 98% 3.9 km
Fr, 17.01. 1:00 96% 8 km
Do, 16.01. 19:00 88% 28 km
Do, 16.01. 13:00 61% 55 km
Do, 16.01. 7:00 99% 0.4 km
Do, 16.01. 1:00 71% 40 km
Ortszeit Relative Feuchte Sichtweite
Fr, 17.01. 23:00 83% 19 km
Fr, 17.01. 22:50 83% -
Fr, 17.01. 22:40 83% -
Fr, 17.01. 22:30 84% 20 km
Fr, 17.01. 22:20 84% -
Fr, 17.01. 22:10 83% -
Fr, 17.01. 22:00 84% 18 km
Fr, 17.01. 21:30 83% 18 km
Fr, 17.01. 21:00 83% 18 km
Fr, 17.01. 20:30 84% 16 km
Fr, 17.01. 20:00 82% 19 km
Ortszeit Niederschlagsmenge Niederschlagsart
Fr, 17.01. 19:00 0.0 l/m2 in 12 Std. -
Fr, 17.01. 13:00 0.0 l/m2 in 6 Std. -
Fr, 17.01. 7:00 0.0 l/m2 in 12 Std. -
Fr, 17.01. 1:00 0.0 l/m2 in 6 Std. -
Do, 16.01. 19:00 0.0 l/m2 in 12 Std. -
Do, 16.01. 13:00 0.0 l/m2 in 6 Std. -
Do, 16.01. 7:00 0.1 l/m2 in 12 Std. Regen
Do, 16.01. 1:00 0.0 l/m2 in 6 Std. -
Ortszeit Niederschlagsmenge Niederschlagsart
Fr, 17.01. 23:00 0.0 l/m2 in 1 Std. -
Fr, 17.01. 22:50 keine Meldung -
Fr, 17.01. 22:40 keine Meldung -
Fr, 17.01. 22:30 0.0 l/m2 in 1 Std. -
Fr, 17.01. 22:20 keine Meldung -
Fr, 17.01. 22:10 keine Meldung -
Fr, 17.01. 22:00 0.0 l/m2 in 1 Std. -
Fr, 17.01. 21:30 0.0 l/m2 in 1 Std. -
Fr, 17.01. 21:00 0.0 l/m2 in 1 Std. -
Fr, 17.01. 20:30 0.0 l/m2 in 1 Std. -
Fr, 17.01. 20:00 0.0 l/m2 in 1 Std. -
Ortszeit Stärke Spitze Richtung
km/h Bft. km/h Grad Sektor
Fr, 17.01. 19:00 11 2 40 160° S
Fr, 17.01. 13:00 22 4 32 130° SO
Fr, 17.01. 7:00 13 3 20 120° SO
Fr, 17.01. 1:00 13 3 22 110° O
Do, 16.01. 19:00 14 3 18 110° O
Do, 16.01. 13:00 7 2 18 240° SW
Do, 16.01. 7:00 4 1 32 260° W
Do, 16.01. 1:00 4 1 47 100° O
Ortszeit Stärke Spitze Richtung
km/h Bft. km/h Grad Sektor
Fr, 17.01. 23:00 13 3 24 240° SW
Fr, 17.01. 22:50 13 3 - 240° SW
Fr, 17.01. 22:40 13 3 - 240° SW
Fr, 17.01. 22:30 11 2 25 250° W
Fr, 17.01. 22:20 11 2 - 250° W
Fr, 17.01. 22:10 13 3 - 240° SW
Fr, 17.01. 22:00 11 2 22 240° SW
Fr, 17.01. 21:30 14 3 22 230° SW
Fr, 17.01. 21:00 11 2 22 210° SW
Fr, 17.01. 20:30 7 2 22 150° SO
Fr, 17.01. 20:00 11 2 18 170° S
Ortszeit Untergrenze Bedeckung Gattung
total tief tief mittel hoch
Fr, 17.01. 19:00 8700 m 7/8 0/8 - - -
Fr, 17.01. 13:00 - 0/8 0/8 - - -
Fr, 17.01. 7:00 - 0/8 0/8 - - -
Fr, 17.01. 1:00 9000 m 0/8 0/8 - - -
Do, 16.01. 19:00 - 0/8 0/8 - - -
Do, 16.01. 13:00 - 0/8 0/8 - - -
Do, 16.01. 7:00 - 0/8 0/8 - - -
Do, 16.01. 1:00 1500 m 8/8 4/8 - - -
Ortszeit Bedeckungsgrad in Achtel und Wolkenuntergrenze
Fr, 17.01. 23:00 5(2100m) 8(7500m) 8(9000m)
Fr, 17.01. 22:50 5(2100m) 8(7500m) 8(9000m)
Fr, 17.01. 22:40 2(2100m) 7(7500m) 8(9000m)
Fr, 17.01. 22:30 2(7200m) 7(9000m) 7(9000m)
Fr, 17.01. 22:20 2(7200m) 7(9000m) 7(9000m)
Fr, 17.01. 22:10 4(7200m) 7(9000m) 7(9000m)
Fr, 17.01. 22:00 1(8100m) 4(9000m) 6(9000m)
Fr, 17.01. 21:30 2(8100m)
Fr, 17.01. 21:00 keine Wolken
Fr, 17.01. 20:30 keine Wolken
Fr, 17.01. 20:00 3(8400m)
Ortszeit Luftdruck NN (hPa) Tendenz (hPa in 3 Std.)
Fr, 17.01. 19:00 1016 - 0,8
Fr, 17.01. 13:00 1019 - 3,3
Fr, 17.01. 7:00 1024 - 1,3
Fr, 17.01. 1:00 1027 - 1,1
Do, 16.01. 19:00 1029 - 0,6
Do, 16.01. 13:00 1030 + 0,7
Do, 16.01. 7:00 1027 + 3,2
Do, 16.01. 1:00 1021 + 2,3
Ortszeit Luftdruck NN (hPa) Tendenz (hPa in 3 Std.)
Fr, 17.01. 23:00 1017 + 0,7
Fr, 17.01. 22:50 1017 keine Meldung
Fr, 17.01. 22:40 1017 keine Meldung
Fr, 17.01. 22:30 1016 + 0,5
Fr, 17.01. 22:20 1016 keine Meldung
Fr, 17.01. 22:10 1016 keine Meldung
Fr, 17.01. 22:00 1016 + 0,3
Fr, 17.01. 21:30 1016 - 0,1
Fr, 17.01. 21:00 1016 - 0,3
Fr, 17.01. 20:30 1016 - 0,4
Fr, 17.01. 20:00 1016 - 0,5
Ortszeit Schneehöhe (cm)
Fr, 17.01. 19:00 0
Fr, 17.01. 13:00 0
Fr, 17.01. 7:00 0
Fr, 17.01. 1:00 0
Do, 16.01. 19:00 0
Do, 16.01. 13:00 0
Do, 16.01. 7:00 0
Do, 16.01. 1:00 0
Ortszeit Schneehöhe (cm)
Fr, 17.01. 23:00 0
Fr, 17.01. 22:50 0
Fr, 17.01. 22:40 0
Fr, 17.01. 22:30 0
Fr, 17.01. 22:20 0
Fr, 17.01. 22:10 0
Fr, 17.01. 22:00 0
Fr, 17.01. 21:30 0
Fr, 17.01. 21:00 0
Fr, 17.01. 20:30 0
Fr, 17.01. 20:00 0
Link zu dieser Seite / Seite empfehlen

Das Wetter in ...